Time;durP1;ratioP1;P1;durP2;ratioP2;P2;SDS_P1;SDS_P2;PMS_P1;PMS_P2;Temp;Humidity;BMP_temperature;BMP_pressure;BME280_temperature;BME280_humidity;BME280_pressure;Samples;Min_cycle;Max_cycle;Signal;HPM_P1;HPM_P2
2022/09/24 00:01:29;;;;;;;6.20;2.15;;;10.00;99.90;;;;;;5092922;27;19923;-69
2022/09/24 00:04:00;;;;;;;3.75;2.10;;;10.00;99.90;;;;;;5104332;28;20035;-71
2022/09/24 00:06:28;;;;;;;6.05;2.33;;;9.90;99.90;;;;;;5108446;28;20044;-70
2022/09/24 00:08:55;;;;;;;3.95;2.13;;;9.90;99.90;;;;;;5095445;28;20053;-68
2022/09/24 00:11:22;;;;;;;6.32;2.40;;;9.80;99.90;;;;;;5088784;27;20039;-69
2022/09/24 00:13:50;;;;;;;7.65;1.88;;;9.80;99.90;;;;;;5103208;28;20071;-68
2022/09/24 00:16:17;;;;;;;4.53;2.40;;;9.80;99.90;;;;;;5109342;27;20085;-68
2022/09/24 00:18:43;;;;;;;5.28;2.33;;;9.80;99.90;;;;;;5097288;28;20044;-69
2022/09/24 00:21:18;;;;;;;7.38;2.55;;;9.80;99.90;;;;;;5097775;28;20791;-68
2022/09/24 00:23:48;;;;;;;4.40;2.10;;;9.90;99.90;;;;;;5092913;28;20127;-68
2022/09/24 00:28:58;;;;;;;5.63;2.67;;;9.80;99.90;;;;;;5089538;28;20033;-68
2022/09/24 00:31:24;;;;;;;;;;;9.70;99.90;;;;;;5095212;27;20036;-68
2022/09/24 00:33:51;;;;;;;6.50;1.98;;;9.70;99.90;;;;;;5095071;28;19926;-71
2022/09/24 00:36:19;;;;;;;3.03;2.08;;;9.70;99.90;;;;;;5089402;28;20122;-70
2022/09/24 00:38:51;;;;;;;9.30;2.40;;;9.70;99.90;;;;;;5082970;28;20043;-68
2022/09/24 00:41:19;;;;;;;5.43;1.85;;;9.70;99.90;;;;;;5077576;28;20044;-68
2022/09/24 00:43:47;;;;;;;6.63;3.00;;;9.70;99.90;;;;;;5089385;28;20749;-68
2022/09/24 00:46:34;;;;;;;7.85;2.55;;;9.70;99.90;;;;;;5096126;28;20051;-68
2022/09/24 00:49:19;;;;;;;4.53;2.45;;;9.70;99.90;;;;;;5081905;28;20203;-68
2022/09/24 00:51:49;;;;;;;5.32;1.88;;;9.60;99.90;;;;;;5096563;28;20067;-70
2022/09/24 00:54:23;;;;;;;2.88;1.95;;;9.60;99.90;;;;;;5083849;28;20032;-68
2022/09/24 00:56:50;;;;;;;4.03;2.10;;;9.50;99.90;;;;;;5097940;28;20514;-68
2022/09/24 00:59:18;;;;;;;5.65;2.60;;;9.50;99.90;;;;;;5082699;28;20036;-70
2022/09/24 01:01:45;;;;;;;3.20;2.03;;;9.50;99.90;;;;;;5096942;28;20064;-69
2022/09/24 01:04:13;;;;;;;4.65;2.67;;;9.50;99.90;;;;;;5085914;28;20042;-68
2022/09/24 01:06:40;;;;;;;4.75;2.08;;;9.50;99.90;;;;;;5096432;28;20040;-68
2022/09/24 01:09:06;;;;;;;4.80;1.95;;;9.50;99.90;;;;;;5085517;28;20040;-68
2022/09/24 01:11:51;;;;;;;8.20;2.92;;;9.50;99.90;;;;;;5073114;28;20047;-68
2022/09/24 01:14:25;;;;;;;5.80;1.80;;;9.50;99.90;;;;;;5087104;28;20036;-69
2022/09/24 01:17:33;;;;;;;8.02;2.83;;;9.40;99.90;;;;;;5097155;28;20523;-71
2022/09/24 01:20:11;;;;;;;;;;;9.40;99.90;;;;;;5045882;28;20040;-68
2022/09/24 01:23:02;;;;;;;2.67;1.95;;;9.30;99.90;;;;;;5091108;28;19923;-69
2022/09/24 01:25:46;;;;;;;5.75;2.30;;;9.30;99.90;;;;;;5098138;28;20075;-68
2022/09/24 01:28:19;;;;;;;5.45;2.65;;;9.30;99.90;;;;;;5088878;28;20031;-67
2022/09/24 01:30:49;;;;;;;4.13;2.20;;;9.30;99.90;;;;;;5095882;28;20076;-67
2022/09/24 01:33:21;;;;;;;3.97;2.25;;;9.30;99.90;;;;;;5090397;28;20039;-69
2022/09/24 01:35:51;;;;;;;6.18;2.15;;;9.30;99.90;;;;;;5098108;28;20062;-67
2022/09/24 01:38:29;;;;;;;4.25;1.88;;;9.30;99.90;;;;;;5084961;28;20037;-68
2022/09/24 01:40:59;;;;;;;5.00;2.13;;;9.30;99.90;;;;;;5066007;28;20489;-67
2022/09/24 01:43:26;;;;;;;5.22;2.58;;;9.30;99.90;;;;;;5082804;28;20548;-67
2022/09/24 01:45:58;;;;;;;6.45;2.50;;;9.20;99.90;;;;;;5097782;28;20040;-69
2022/09/24 01:48:25;;;;;;;3.30;2.20;;;9.20;99.90;;;;;;5085612;28;20039;-66
2022/09/24 01:51:08;;;;;;;3.47;2.10;;;9.20;99.90;;;;;;5090987;28;20039;-67
2022/09/24 01:53:43;;;;;;;3.22;1.85;;;9.20;99.90;;;;;;5091032;28;20123;-68
2022/09/24 01:56:15;;;;;;;5.90;2.13;;;9.10;99.90;;;;;;5091563;28;20058;-68
2022/09/24 01:59:30;;;;;;;3.38;1.83;;;9.10;99.90;;;;;;5091227;28;20040;-68
2022/09/24 02:02:13;;;;;;;5.28;2.05;;;9.10;99.90;;;;;;5046990;28;20091;-67
2022/09/24 02:04:43;;;;;;;4.15;2.40;;;9.00;99.90;;;;;;5059439;28;20091;-69
2022/09/24 02:07:27;;;;;;;7.43;1.90;;;9.00;99.90;;;;;;5058080;28;20048;-70
2022/09/24 02:09:53;;;;;;;5.50;2.00;;;9.00;99.90;;;;;;5056970;28;20024;-68
2022/09/24 02:12:18;;;;;;;;;;;9.00;99.90;;;;;;5062978;28;20185;-68
2022/09/24 02:14:53;;;;;;;7.00;2.13;;;9.00;99.90;;;;;;5059730;28;19948;-67
2022/09/24 02:17:22;;;;;;;4.10;2.40;;;9.00;99.90;;;;;;5062768;28;20048;-68
2022/09/24 02:19:49;;;;;;;7.55;2.67;;;9.00;99.90;;;;;;5064451;28;20338;-68
2022/09/24 02:22:16;;;;;;;4.70;2.15;;;9.00;99.90;;;;;;5062771;28;20041;-70
2022/09/24 02:24:49;;;;;;;4.03;2.17;;;9.00;99.90;;;;;;5062864;28;20032;-67
2022/09/24 02:27:18;;;;;;;4.03;1.90;;;9.00;99.90;;;;;;5062444;28;20032;-68
2022/09/24 02:29:45;;;;;;;7.32;2.30;;;9.00;99.90;;;;;;5064126;28;20036;-68
2022/09/24 02:32:15;;;;;;;3.38;1.95;;;9.00;99.90;;;;;;5087091;28;20035;-68
2022/09/24 02:34:46;;;;;;;6.13;2.08;;;9.00;99.90;;;;;;5084609;28;20090;-67
2022/09/24 02:37:13;;;;;;;4.70;1.90;;;9.00;99.90;;;;;;5090866;28;20066;-67
2022/09/24 02:39:39;;;;;;;4.03;2.03;;;9.00;99.90;;;;;;5084264;28;20044;-68
2022/09/24 02:42:08;;;;;;;5.40;2.28;;;9.00;99.90;;;;;;5079262;28;20033;-68
2022/09/24 02:44:37;;;;;;;4.75;2.17;;;8.90;99.90;;;;;;5089976;28;20044;-67
2022/09/24 02:47:03;;;;;;;5.43;2.25;;;9.00;99.90;;;;;;5093419;28;20239;-67
2022/09/24 02:49:29;;;;;;;5.25;2.05;;;8.90;99.90;;;;;;5092282;28;20044;-68
2022/09/24 02:51:55;;;;;;;;;;;8.90;99.90;;;;;;5088237;28;20040;-68
2022/09/24 02:54:22;;;;;;;6.32;2.28;;;8.90;99.90;;;;;;5090247;28;19916;-69
2022/09/24 02:56:48;;;;;;;11.93;3.20;;;8.90;99.90;;;;;;5093920;28;20468;-70
2022/09/24 02:59:14;;;;;;;;;;;8.90;99.90;;;;;;5082452;28;20126;-67
2022/09/24 03:01:39;;;;;;;4.97;2.28;;;8.90;99.90;;;;;;5094181;28;19920;-67
2022/09/24 03:04:06;;;;;;;11.55;2.78;;;8.90;99.90;;;;;;5090242;28;20031;-67
2022/09/24 03:06:31;;;;;;;;;;;8.90;99.90;;;;;;5090455;28;20385;-68
2022/09/24 03:08:57;;;;;;;6.95;2.17;;;8.90;99.90;;;;;;5082334;28;19920;-70
2022/09/24 03:11:23;;;;;;;6.38;2.25;;;8.90;99.90;;;;;;5074787;28;20068;-69
2022/09/24 03:13:49;;;;;;;;;;;8.90;99.90;;;;;;5086279;28;20043;-69
2022/09/24 03:16:16;;;;;;;5.40;2.40;;;8.90;99.90;;;;;;5092302;28;19920;-67
2022/09/24 03:18:42;;;;;;;6.70;2.13;;;8.90;99.90;;;;;;5089528;28;20126;-67
2022/09/24 03:21:09;;;;;;;;;;;9.00;99.90;;;;;;5088550;28;20173;-67
2022/09/24 03:23:35;;;;;;;5.65;3.13;;;9.00;99.90;;;;;;5101049;28;19927;-68
2022/09/24 03:26:01;;;;;;;;;;;9.10;99.90;;;;;;5098533;28;20043;-67
2022/09/24 03:28:27;;;;;;;5.40;2.47;;;9.10;99.90;;;;;;5090482;28;19959;-68
2022/09/24 03:30:59;;;;;;;7.47;2.72;;;9.00;99.90;;;;;;5098310;28;20042;-69
2022/09/24 03:33:35;;;;;;;8.98;2.65;;;9.00;99.90;;;;;;5088564;28;20050;-67
2022/09/24 03:36:03;;;;;;;9.55;3.25;;;9.10;99.90;;;;;;5092116;28;20127;-67
2022/09/24 03:38:29;;;;;;;6.47;2.35;;;9.10;99.90;;;;;;5081248;28;20041;-70
2022/09/24 03:40:56;;;;;;;7.70;2.20;;;9.10;99.90;;;;;;5080582;28;20113;-67
2022/09/24 03:43:22;;;;;;;9.07;2.35;;;9.10;99.90;;;;;;5081418;28;20471;-67
2022/09/24 03:45:48;;;;;;;;;;;9.10;99.90;;;;;;5095191;28;20670;-69
2022/09/24 03:48:18;;;;;;;4.28;2.53;;;9.10;99.90;;;;;;5090546;28;19920;-69
2022/09/24 03:50:45;;;;;;;5.28;2.60;;;9.10;99.90;;;;;;5095143;28;20031;-69
2022/09/24 03:53:10;;;;;;;;;;;9.10;99.90;;;;;;5084633;28;20422;-66
2022/09/24 03:55:42;;;;;;;5.70;2.28;;;9.00;99.90;;;;;;5101008;28;19961;-67
2022/09/24 03:58:08;;;;;;;3.97;2.28;;;9.00;99.90;;;;;;5086087;28;20036;-67
2022/09/24 04:00:33;;;;;;;;;;;8.90;99.90;;;;;;5101533;28;20454;-66
2022/09/24 04:02:59;;;;;;;4.45;2.50;;;8.90;99.90;;;;;;5081942;28;19915;-66
2022/09/24 04:05:24;;;;;;;;;;;8.90;99.90;;;;;;5094352;28;21390;-66
2022/09/24 04:07:50;;;;;;;6.25;2.78;;;8.90;99.90;;;;;;5092706;28;20405;-67
2022/09/24 04:10:15;;;;;;;;;;;8.90;99.90;;;;;;5082997;28;20081;-67
2022/09/24 04:12:44;;;;;;;4.53;2.72;;;8.90;99.90;;;;;;5080436;28;19943;-68
2022/09/24 04:15:10;;;;;;;4.28;2.40;;;8.90;99.90;;;;;;5093556;28;20084;-67
2022/09/24 04:17:35;;;;;;;;;;;8.90;99.90;;;;;;5083981;28;20052;-68
2022/09/24 04:20:01;;;;;;;6.13;2.60;;;8.90;99.90;;;;;;5099290;28;19955;-69
2022/09/24 04:22:28;;;;;;;;;;;8.90;99.90;;;;;;5085447;28;20373;-67
2022/09/24 04:24:56;;;;;;;7.07;2.60;;;8.90;99.90;;;;;;5098802;28;19969;-67
2022/09/24 04:27:22;;;;;;;7.88;2.80;;;8.90;99.90;;;;;;5085607;28;20113;-67
2022/09/24 04:29:47;;;;;;;;;;;8.90;99.90;;;;;;5097823;28;20491;-67
2022/09/24 04:32:13;;;;;;;6.65;2.58;;;8.90;99.90;;;;;;5087920;28;19931;-67
2022/09/24 04:34:38;;;;;;;;;;;8.90;99.90;;;;;;5096036;28;20736;-68
2022/09/24 04:37:04;;;;;;;4.55;2.72;;;8.90;99.90;;;;;;5090708;28;19920;-68
2022/09/24 04:39:30;;;;;;;6.85;3.17;;;8.90;99.90;;;;;;5081676;28;20032;-69
2022/09/24 04:41:56;;;;;;;8.45;2.58;;;8.90;99.90;;;;;;5065386;28;20101;-66
2022/09/24 04:44:22;;;;;;;;;;;8.90;99.90;;;;;;5091545;28;20560;-66
2022/09/24 04:46:48;;;;;;;6.10;2.40;;;8.90;99.90;;;;;;5088269;28;19919;-69
2022/09/24 04:49:14;;;;;;;4.70;2.97;;;8.90;99.90;;;;;;5092084;28;20038;-69
2022/09/24 04:51:40;;;;;;;;;;;8.90;99.90;;;;;;5087773;28;20571;-67
2022/09/24 04:54:08;;;;;;;6.35;3.15;;;8.90;99.90;;;;;;5091091;28;19930;-67
2022/09/24 04:56:34;;;;;;;4.85;2.63;;;8.90;99.90;;;;;;5095437;28;20116;-67
2022/09/24 04:58:59;;;;;;;;;;;8.90;99.90;;;;;;5082660;28;20031;-67
2022/09/24 05:01:25;;;;;;;8.32;3.05;;;9.00;99.90;;;;;;5097228;28;19926;-69
2022/09/24 05:03:52;;;;;;;;;;;9.00;99.90;;;;;;5089681;27;20058;-64
2022/09/24 05:06:17;;;;;;;4.63;2.72;;;9.00;99.90;;;;;;5096721;28;19969;-63
2022/09/24 05:08:43;;;;;;;;;;;9.00;99.90;;;;;;5083567;28;20045;-65
2022/09/24 05:11:08;;;;;;;6.57;2.65;;;9.00;99.90;;;;;;5079456;27;20552;-66
2022/09/24 05:13:34;;;;;;;;;;;9.00;99.90;;;;;;5079251;28;20475;-66
2022/09/24 05:16:01;;;;;;;5.03;2.67;;;9.00;99.90;;;;;;5079812;28;20024;-67
2022/09/24 05:18:27;;;;;;;4.82;2.70;;;9.00;99.90;;;;;;5080022;28;20520;-67
2022/09/24 05:20:52;;;;;;;;;;;9.00;99.90;;;;;;5083601;28;20077;-68
2022/09/24 05:23:18;;;;;;;7.35;2.50;;;9.00;99.90;;;;;;5087059;28;20586;-67
2022/09/24 05:28:28;;;;;;;7.25;2.78;;;9.10;99.90;;;;;;5090738;28;20836;-68
2022/09/24 05:30:57;;;;;;;;;;;9.10;99.90;;;;;;5099698;28;20043;-70
2022/09/24 05:33:23;;;;;;;10.73;3.97;;;9.10;99.90;;;;;;5088845;28;19927;-69
2022/09/24 05:35:54;;;;;;;;;;;9.10;99.90;;;;;;5098795;28;20040;-68
2022/09/24 05:38:20;;;;;;;8.02;3.28;;;9.10;99.90;;;;;;5082986;28;20399;-70
2022/09/24 05:40:49;;;;;;;;;;;9.10;99.90;;;;;;5075703;28;20041;-68
2022/09/24 05:43:16;;;;;;;9.05;3.80;;;9.10;99.90;;;;;;5080939;28;19920;-68
2022/09/24 05:45:44;;;;;;;8.68;4.45;;;9.20;99.90;;;;;;5098022;28;20048;-66
2022/09/24 05:48:10;;;;;;;10.82;4.45;;;9.20;99.90;;;;;;5084999;28;20182;-69
2022/09/24 05:50:35;;;;;;;;;;;9.20;99.90;;;;;;5083076;28;20518;-67
2022/09/24 05:53:02;;;;;;;7.43;3.63;;;9.20;99.90;;;;;;5088727;28;19952;-66
2022/09/24 05:55:28;;;;;;;7.03;3.10;;;9.20;99.90;;;;;;5089488;28;20566;-66
2022/09/24 05:57:54;;;;;;;;;;;9.20;99.90;;;;;;5096417;28;20081;-67
2022/09/24 06:00:19;;;;;;;9.25;4.28;;;9.20;99.90;;;;;;5080207;28;20717;-67
2022/09/24 06:02:45;;;;;;;;;;;9.20;99.90;;;;;;5088006;28;20036;-67
2022/09/24 06:05:11;;;;;;;9.43;3.63;;;9.20;99.90;;;;;;5085142;28;19920;-68
2022/09/24 06:07:37;;;;;;;7.22;3.90;;;9.20;99.90;;;;;;5090281;28;20040;-67
2022/09/24 06:10:04;;;;;;;;;;;9.30;99.90;;;;;;5081532;28;20098;-67
2022/09/24 06:12:33;;;;;;;5.07;3.20;;;9.30;99.90;;;;;;5074972;28;19927;-68
2022/09/24 06:15:00;;;;;;;8.48;3.80;;;9.30;99.90;;;;;;5091492;28;20527;-67
2022/09/24 06:17:26;;;;;;;6.30;3.08;;;9.30;99.90;;;;;;5090057;28;20123;-67
2022/09/24 06:19:51;;;;;;;;;;;9.40;99.90;;;;;;5094343;28;20225;-66
2022/09/24 06:22:17;;;;;;;6.85;3.60;;;9.30;99.90;;;;;;5090743;28;19924;-66
2022/09/24 06:24:42;;;;;;;;;;;9.40;99.90;;;;;;5092203;28;20089;-67
2022/09/24 06:27:08;;;;;;;5.53;3.35;;;9.40;99.90;;;;;;5092329;28;19979;-67
2022/09/24 06:29:34;;;;;;;;;;;9.40;99.90;;;;;;5092885;28;20101;-65
2022/09/24 06:32:00;;;;;;;5.30;3.00;;;9.50;99.90;;;;;;5091227;28;19916;-67
2022/09/24 06:34:27;;;;;;;7.88;3.45;;;9.60;99.90;;;;;;5082803;28;20044;-64
2022/09/24 06:36:53;;;;;;;6.70;3.20;;;9.60;99.90;;;;;;5086588;28;20039;-65
2022/09/24 06:39:19;;;;;;;6.18;3.10;;;9.70;99.90;;;;;;5081769;28;20114;-65
2022/09/24 06:41:45;;;;;;;;;;;9.70;99.90;;;;;;5067566;28;20127;-66
2022/09/24 06:44:11;;;;;;;7.78;3.88;;;9.90;99.90;;;;;;5090003;28;19915;-67
2022/09/24 06:46:36;;;;;;;;;;;10.00;99.90;;;;;;5094854;28;20048;-67
2022/09/24 06:49:02;;;;;;;18.25;6.00;;;10.10;99.90;;;;;;5093593;28;20073;-67
2022/09/24 06:51:27;;;;;;;;;;;10.20;99.90;;;;;;5093082;28;20141;-68
2022/09/24 06:53:53;;;;;;;9.65;4.72;;;10.30;99.90;;;;;;5090609;28;19919;-66
2022/09/24 06:56:19;;;;;;;;;;;10.50;99.90;;;;;;5089911;28;20446;-66
2022/09/24 06:58:45;;;;;;;12.05;6.15;;;10.50;99.90;;;;;;5089379;28;20358;-67
2022/09/24 07:01:10;;;;;;;9.35;4.57;;;10.50;99.90;;;;;;5089528;28;20050;-68
2022/09/24 07:03:37;;;;;;;;;;;10.60;99.90;;;;;;5090956;28;20044;-67
2022/09/24 07:06:04;;;;;;;8.73;5.20;;;10.80;99.90;;;;;;5092121;28;20012;-67
2022/09/24 07:08:31;;;;;;;10.43;5.15;;;11.00;99.90;;;;;;5081883;28;20044;-66
2022/09/24 07:10:56;;;;;;;9.00;5.05;;;11.10;99.90;;;;;;5080751;28;20036;-67
2022/09/24 07:13:22;;;;;;;;;;;11.20;99.90;;;;;;5078978;28;20100;-66
2022/09/24 07:15:49;;;;;;;14.05;6.68;;;11.30;99.90;;;;;;5095471;28;19930;-67
2022/09/24 07:18:16;;;;;;;17.27;6.55;;;11.40;99.90;;;;;;5091720;28;20101;-67
2022/09/24 07:20:41;;;;;;;11.60;6.80;;;11.50;99.90;;;;;;5090642;28;20046;-66
2022/09/24 07:23:08;;;;;;;;;;;11.50;99.90;;;;;;5088791;28;20039;-68
2022/09/24 07:25:34;;;;;;;12.07;6.70;;;11.70;99.90;;;;;;5092798;28;19923;-69
2022/09/24 07:28:09;;;;;;;21.17;11.18;;;11.80;99.90;;;;;;5083422;28;20284;-66
2022/09/24 07:30:37;;;;;;;13.68;7.90;;;11.90;99.90;;;;;;5098430;28;20035;-67
2022/09/24 07:33:03;;;;;;;18.05;7.90;;;12.00;99.90;;;;;;5093318;28;20039;-67
2022/09/24 07:35:28;;;;;;;19.73;9.20;;;12.10;99.90;;;;;;5097974;28;20032;-67
2022/09/24 07:38:02;;;;;;;;;;;12.10;99.90;;;;;;5091417;28;20035;-67
2022/09/24 07:40:28;;;;;;;18.10;9.32;;;12.20;99.90;;;;;;5086942;28;19920;-67
2022/09/24 07:42:54;;;;;;;15.45;9.07;;;12.20;99.90;;;;;;5085626;28;20084;-66
2022/09/24 07:45:21;;;;;;;;;;;12.30;99.90;;;;;;5099909;28;20092;-66
2022/09/24 07:47:46;;;;;;;17.23;7.07;;;12.30;99.90;;;;;;5092829;28;19924;-66
2022/09/24 07:50:12;;;;;;;;;;;12.30;99.90;;;;;;5092549;28;20093;-66
2022/09/24 07:52:38;;;;;;;17.33;9.32;;;12.30;99.90;;;;;;5088373;28;19916;-67
2022/09/24 07:55:05;;;;;;;17.35;9.07;;;12.30;99.90;;;;;;5083198;28;20040;-67
2022/09/24 07:57:31;;;;;;;18.58;10.23;;;12.30;99.90;;;;;;5094842;28;20079;-66
2022/09/24 07:59:56;;;;;;;;;;;12.30;99.90;;;;;;5097406;28;20753;-67
2022/09/24 08:02:23;;;;;;;14.48;8.60;;;12.40;99.90;;;;;;5094662;28;19924;-67
2022/09/24 08:04:48;;;;;;;16.05;9.30;;;12.40;99.90;;;;;;5097984;28;20065;-66
2022/09/24 08:07:14;;;;;;;;;;;12.40;99.90;;;;;;5088288;28;20138;-66
2022/09/24 08:09:40;;;;;;;18.83;9.30;;;12.50;99.90;;;;;;5084583;28;19955;-67
2022/09/24 08:12:06;;;;;;;;;;;12.50;99.90;;;;;;5078149;28;20044;-66
2022/09/24 08:14:32;;;;;;;20.00;11.73;;;12.50;99.90;;;;;;5094107;28;20390;-68
2022/09/24 08:16:57;;;;;;;;;;;12.60;99.90;;;;;;5085262;28;20082;-69
2022/09/24 08:19:23;;;;;;;26.77;14.27;;;12.60;99.90;;;;;;5085968;28;19916;-68
2022/09/24 08:21:49;;;;;;;;;;;12.60;99.90;;;;;;5085110;28;20040;-66
2022/09/24 08:24:16;;;;;;;22.33;12.10;;;12.60;99.90;;;;;;5085990;28;19955;-67
2022/09/24 08:26:42;;;;;;;20.80;12.25;;;12.60;99.90;;;;;;5079478;28;20048;-68
2022/09/24 08:29:07;;;;;;;;;;;12.60;99.90;;;;;;5083130;28;20127;-66
2022/09/24 08:31:33;;;;;;;31.25;15.73;;;12.70;99.90;;;;;;5087754;28;19920;-68
2022/09/24 08:34:00;;;;;;;24.27;13.38;;;12.70;99.90;;;;;;5083137;28;20040;-68
2022/09/24 08:36:26;;;;;;;32.60;13.45;;;12.80;99.90;;;;;;5086571;28;20104;-68
2022/09/24 08:38:55;;;;;;;26.38;12.57;;;12.80;99.90;;;;;;5088277;28;20039;-67
2022/09/24 08:41:21;;;;;;;27.48;15.85;;;12.90;99.90;;;;;;5075019;28;20047;-67
2022/09/24 08:43:46;;;;;;;;;;;12.90;99.90;;;;;;5087299;28;20044;-67
2022/09/24 08:49:17;;;;;;;24.88;15.82;;;13.00;99.90;;;;;;5091635;28;20135;-68
2022/09/24 08:52:09;;;;;;;30.58;16.10;;;13.00;99.90;;;;;;5086620;28;20119;-69
2022/09/24 08:54:36;;;;;;;27.45;14.65;;;13.00;99.90;;;;;;5092621;28;20051;-68
2022/09/24 08:57:10;;;;;;;25.88;15.70;;;13.00;99.90;;;;;;5085030;28;20046;-67
2022/09/24 08:59:42;;;;;;;29.00;16.98;;;13.00;99.90;;;;;;5070907;28;20040;-68
2022/09/24 09:02:12;;;;;;;31.40;16.63;;;13.00;99.90;;;;;;5094276;28;20031;-67
2022/09/24 09:05:01;;;;;;;23.95;15.30;;;13.00;99.90;;;;;;5084807;28;20411;-67
2022/09/24 09:07:45;;;;;;;27.55;14.82;;;13.00;99.90;;;;;;5086570;28;20044;-66
2022/09/24 09:10:26;;;;;;;31.85;15.73;;;13.10;99.90;;;;;;5081063;28;20538;-67
2022/09/24 09:13:25;;;;;;;26.98;16.17;;;13.10;99.90;;;;;;5074424;28;20202;-65
2022/09/24 09:16:05;;;;;;;28.15;15.48;;;13.10;99.90;;;;;;5090908;28;20462;-69
2022/09/24 09:18:36;;;;;;;26.92;15.85;;;13.20;99.90;;;;;;5078033;28;20098;-67
2022/09/24 09:21:40;;;;;;;24.48;15.25;;;13.20;99.90;;;;;;5096952;28;20035;-67
2022/09/24 09:24:18;;;;;;;27.67;16.13;;;13.30;99.90;;;;;;5079964;28;20040;-68
2022/09/24 09:26:50;;;;;;;29.80;16.88;;;13.20;99.90;;;;;;5087087;28;20035;-68
2022/09/24 09:29:16;;;;;;;27.85;16.90;;;13.20;99.90;;;;;;5085417;28;20047;-67
2022/09/24 09:32:17;;;;;;;;;;;13.20;99.90;;;;;;5095371;28;20035;-66
2022/09/24 09:34:58;;;;;;;27.00;14.98;;;13.30;99.90;;;;;;5033460;28;19916;-62
2022/09/24 09:37:36;;;;;;;28.52;16.30;;;13.30;99.90;;;;;;5089991;28;20055;-67
2022/09/24 09:40:15;;;;;;;28.65;16.10;;;13.40;99.90;;;;;;5073847;28;20048;-67
2022/09/24 09:42:43;;;;;;;32.20;17.45;;;13.40;99.90;;;;;;5067851;28;20032;-67
2022/09/24 09:45:28;;;;;;;37.20;17.85;;;13.30;99.90;;;;;;5092417;28;20202;-68
2022/09/24 09:47:56;;;;;;;28.58;16.33;;;13.30;99.90;;;;;;5084362;28;20045;-67
2022/09/24 09:50:34;;;;;;;27.17;15.50;;;13.40;99.90;;;;;;5085511;28;20046;-68
2022/09/24 09:53:01;;;;;;;32.20;16.60;;;13.40;99.90;;;;;;5077503;28;20098;-67
2022/09/24 09:55:31;;;;;;;31.67;17.27;;;13.50;99.90;;;;;;5081774;28;20054;-67
2022/09/24 09:58:15;;;;;;;24.90;16.50;;;13.50;99.90;;;;;;5080680;28;20059;-70
2022/09/24 10:00:41;;;;;;;27.83;16.75;;;13.60;99.90;;;;;;5084701;28;20047;-69
2022/09/24 10:03:20;;;;;;;;;;;13.60;99.90;;;;;;5081009;28;20039;-68
2022/09/24 10:05:55;;;;;;;25.20;15.20;;;13.50;99.90;;;;;;5083842;28;19919;-68
2022/09/24 10:08:22;;;;;;;27.48;16.20;;;13.60;99.90;;;;;;5076105;28;20063;-67
2022/09/24 10:10:54;;;;;;;35.00;16.25;;;13.50;99.90;;;;;;5076333;28;20162;-68
2022/09/24 10:13:20;;;;;;;32.10;17.67;;;13.50;99.90;;;;;;5078690;28;20043;-69
2022/09/24 10:15:50;;;;;;;;;;;13.50;99.90;;;;;;5088225;28;20128;-68
2022/09/24 10:18:16;;;;;;;32.63;17.02;;;13.50;99.90;;;;;;5080185;28;19923;-69
2022/09/24 10:20:47;;;;;;;30.35;17.55;;;13.50;99.90;;;;;;5095907;28;20103;-68
2022/09/24 10:23:20;;;;;;;28.70;16.58;;;13.50;99.90;;;;;;5088501;28;20091;-70
2022/09/24 10:25:57;;;;;;;31.13;17.65;;;13.50;99.90;;;;;;5097691;28;20047;-68
2022/09/24 10:31:21;;;;;;;36.05;20.75;;;13.40;99.90;;;;;;5086482;27;20047;-67
2022/09/24 10:33:51;;;;;;;47.65;20.52;;;13.30;99.90;;;;;;5086835;28;20040;-70
2022/09/24 10:36:21;;;;;;;33.63;19.60;;;13.20;99.90;;;;;;5098421;28;20043;-68
2022/09/24 10:38:47;;;;;;;37.67;18.65;;;13.20;99.90;;;;;;5083827;28;20043;-68
2022/09/24 10:41:14;;;;;;;29.10;18.88;;;13.20;99.90;;;;;;5068302;27;20250;-67
2022/09/24 10:43:50;;;;;;;41.17;20.83;;;13.10;99.90;;;;;;5081722;28;20500;-69
2022/09/24 10:46:40;;;;;;;29.48;18.48;;;13.00;99.90;;;;;;5095680;28;20040;-69
2022/09/24 10:49:44;;;;;;;34.50;19.90;;;12.90;99.90;;;;;;5080736;28;20043;-70
2022/09/24 10:52:32;;;;;;;36.45;19.88;;;12.90;99.90;;;;;;5068541;28;20432;-68
2022/09/24 10:55:32;;;;;;;33.88;17.67;;;12.70;99.90;;;;;;5085999;28;20114;-70
2022/09/24 10:58:33;;;;;;;26.13;17.10;;;12.80;99.90;;;;;;5074229;28;20067;-69
2022/09/24 11:01:25;;;;;;;31.55;19.13;;;12.80;99.90;;;;;;5088326;28;20044;-69
2022/09/24 11:03:57;;;;;;;32.42;19.05;;;12.90;99.90;;;;;;5083183;28;20043;-67
2022/09/24 11:06:43;;;;;;;32.42;20.10;;;12.90;99.90;;;;;;5094071;28;20048;-68
2022/09/24 11:09:40;;;;;;;39.55;20.52;;;12.90;99.90;;;;;;5078208;28;20177;-66
2022/09/24 11:12:06;;;;;;;;;;;12.80;99.90;;;;;;5067536;28;20284;-66
2022/09/24 11:14:53;;;;;;;38.30;22.97;;;12.80;99.90;;;;;;5085819;28;19919;-67
2022/09/24 11:18:11;;;;;;;40.10;19.77;;;12.70;99.90;;;;;;5085855;28;20183;-67
2022/09/24 11:20:38;;;;;;;32.72;20.33;;;12.70;99.90;;;;;;5077279;28;20436;-68
2022/09/24 11:23:12;;;;;;;36.63;18.95;;;12.70;99.90;;;;;;5087017;28;20023;-69
2022/09/24 11:26:08;;;;;;;34.63;19.75;;;12.70;99.90;;;;;;5089713;28;20038;-68
2022/09/24 11:29:00;;;;;;;33.20;19.90;;;12.70;99.90;;;;;;5081595;28;20040;-68
2022/09/24 11:31:28;;;;;;;34.50;19.08;;;12.80;99.90;;;;;;5085598;28;20773;-69
2022/09/24 11:34:12;;;;;;;32.38;19.55;;;12.90;99.90;;;;;;5088410;28;20032;-68
2022/09/24 11:36:56;;;;;;;37.28;21.70;;;12.90;99.90;;;;;;5090458;28;20123;-68
2022/09/24 11:39:56;;;;;;;32.58;20.80;;;13.00;99.90;;;;;;5080795;28;20036;-67
2022/09/24 11:42:30;;;;;;;36.42;21.83;;;13.00;99.90;;;;;;5057292;28;20295;-68
2022/09/24 11:45:10;;;;;;;35.75;20.40;;;13.10;99.90;;;;;;5081197;28;20088;-69
2022/09/24 11:47:55;;;;;;;31.95;19.45;;;13.30;99.90;;;;;;5088518;28;20040;-70
2022/09/24 11:50:47;;;;;;;32.70;20.67;;;13.40;99.90;;;;;;5083289;28;20072;-68
2022/09/24 11:53:40;;;;;;;42.30;23.95;;;13.40;99.90;;;;;;5078924;28;21174;-68
2022/09/24 11:56:33;;;;;;;38.47;21.48;;;13.50;99.90;;;;;;5085985;28;20052;-69
2022/09/24 11:59:26;;;;;;;33.33;21.88;;;13.60;99.90;;;;;;5079206;28;20114;-67
2022/09/24 12:02:11;;;;;;;34.97;21.52;;;13.60;99.90;;;;;;5096130;28;20112;-67
2022/09/24 12:05:14;;;;;;;33.85;21.50;;;13.70;99.90;;;;;;5082904;28;20045;-69
2022/09/24 12:07:50;;;;;;;34.97;20.15;;;13.80;99.90;;;;;;5087590;28;20050;-71
2022/09/24 12:10:38;;;;;;;34.70;20.65;;;13.80;99.90;;;;;;5080802;28;20044;-67
2022/09/24 12:13:29;;;;;;;37.60;22.02;;;13.80;99.90;;;;;;5073955;28;20101;-66
2022/09/24 12:16:03;;;;;;;37.47;22.02;;;13.80;99.90;;;;;;5098652;28;20027;-68
2022/09/24 12:18:51;;;;;;;41.47;24.70;;;13.80;99.90;;;;;;5082240;28;20044;-65
2022/09/24 12:21:41;;;;;;;36.67;24.02;;;13.70;99.90;;;;;;5082749;28;20032;-65
2022/09/24 12:24:29;;;;;;;37.58;23.75;;;13.70;99.90;;;;;;5089992;28;20044;-69
2022/09/24 12:26:58;;;;;;;43.17;24.00;;;13.60;99.90;;;;;;5098419;28;20043;-67
2022/09/24 12:32:59;;;;;;;36.03;22.90;;;13.60;99.90;;;;;;5075288;28;20040;-67
2022/09/24 12:35:27;;;;;;;31.77;20.58;;;13.50;99.90;;;;;;5094800;28;20123;-68
2022/09/24 12:38:16;;;;;;;37.10;23.85;;;13.50;99.90;;;;;;5097678;28;20491;-67
2022/09/24 12:41:07;;;;;;;39.75;24.08;;;13.50;99.90;;;;;;5087567;28;20069;-68
2022/09/24 12:44:01;;;;;;;39.83;24.42;;;13.40;99.90;;;;;;5080567;28;20063;-69
2022/09/24 12:46:41;;;;;;;39.35;25.88;;;13.40;99.90;;;;;;5084447;28;20074;-66
2022/09/24 12:49:25;;;;;;;42.22;25.33;;;13.30;99.90;;;;;;5087319;28;20040;-67
2022/09/24 12:51:53;;;;;;;34.03;21.85;;;13.30;99.90;;;;;;5093714;28;20054;-67
2022/09/24 12:54:27;;;;;;;33.05;20.75;;;13.30;99.90;;;;;;5075236;28;20046;-68
2022/09/24 12:57:15;;;;;;;42.83;24.52;;;13.30;99.90;;;;;;5097910;28;20047;-69
2022/09/24 12:59:46;;;;;;;36.20;23.15;;;13.30;99.90;;;;;;5094603;28;20567;-67
2022/09/24 13:02:20;;;;;;;38.42;23.00;;;13.30;99.90;;;;;;5094037;28;20074;-68
2022/09/24 13:05:03;;;;;;;39.42;23.70;;;13.30;99.90;;;;;;5093868;28;20052;-67
2022/09/24 13:07:41;;;;;;;32.55;21.65;;;13.30;99.90;;;;;;5081700;28;20052;-69
2022/09/24 13:10:16;;;;;;;40.03;22.88;;;13.30;99.90;;;;;;5086858;28;20074;-67
2022/09/24 13:12:43;;;;;;;39.63;23.55;;;13.40;99.90;;;;;;5082521;28;20047;-67
2022/09/24 13:15:34;;;;;;;37.45;22.50;;;13.40;99.90;;;;;;5080949;28;20039;-66
2022/09/24 13:18:05;;;;;;;39.30;23.80;;;13.40;99.90;;;;;;5090726;28;20120;-67
2022/09/24 13:20:32;;;;;;;37.67;23.73;;;13.40;99.90;;;;;;5093912;28;20508;-66
2022/09/24 13:23:15;;;;;;;50.50;29.83;;;13.40;99.90;;;;;;5094627;28;20032;-66
2022/09/24 13:25:52;;;;;;;49.65;28.70;;;13.50;99.90;;;;;;5096383;28;20036;-66
2022/09/24 13:28:21;;;;;;;35.72;23.23;;;13.60;99.90;;;;;;5083701;28;20062;-67
2022/09/24 13:30:56;;;;;;;41.67;26.50;;;13.60;99.90;;;;;;5097133;28;20119;-68
2022/09/24 13:33:33;;;;;;;44.75;25.88;;;13.60;99.90;;;;;;5090255;28;20164;-66
2022/09/24 13:36:34;;;;;;;42.15;25.27;;;13.60;99.90;;;;;;5092806;28;20118;-67
2022/09/24 13:39:15;;;;;;;40.28;25.27;;;13.70;99.90;;;;;;5080858;28;20035;-70